Time;durP1;ratioP1;P1;durP2;ratioP2;P2;SDS_P1;SDS_P2;PMS_P1;PMS_P2;Temp;Humidity;BMP_temperature;BMP_pressure;BME280_temperature;BME280_humidity;BME280_pressure;Samples;Min_cycle;Max_cycle;Signal;HPM_P1;HPM_P2
2024/03/11 00:01:44;;;;;;;;;;;18.20;58.30;;;;;;5039640;28;1935;-71
2024/03/11 00:04:10;;;;;;;;;;;18.20;58.90;;;;;;5050135;28;1578;-71
2024/03/11 00:06:39;;;;;;;;;;;18.20;58.30;;;;;;5049789;28;1516;-71
2024/03/11 00:09:15;;;;;;;;;;;18.20;58.30;;;;;;5043062;28;1305;-71
2024/03/11 00:11:48;;;;;;;;;;;18.20;58.30;;;;;;5043427;28;1249;-72
2024/03/11 00:14:16;;;;;;;;;;;18.20;58.30;;;;;;5044348;28;1458;-71
2024/03/11 00:16:42;;;;;;;;;;;18.20;58.30;;;;;;5041434;28;1638;-71
2024/03/11 00:19:08;;;;;;;;;;;18.20;58.30;;;;;;5034048;28;1347;-71
2024/03/11 00:21:33;;;;;;;;;;;18.20;58.40;;;;;;5040624;28;1973;-72
2024/03/11 00:23:59;;;;;;;;;;;18.10;58.30;;;;;;5040330;28;1612;-72
2024/03/11 00:26:24;;;;;;;;;;;18.10;58.30;;;;;;5038442;28;1163;-72
2024/03/11 00:28:50;;;;;;;;;;;18.10;58.30;;;;;;5042409;28;1227;-71
2024/03/11 00:31:15;;;;;;;;;;;18.20;58.40;;;;;;5041119;28;1337;-71
2024/03/11 00:33:41;;;;;;;;;;;18.20;58.40;;;;;;5044069;28;1584;-71
2024/03/11 00:36:06;;;;;;;;;;;18.20;58.40;;;;;;5045357;28;1222;-71
2024/03/11 00:38:32;;;;;;;;;;;18.10;58.30;;;;;;5045224;28;1390;-72
2024/03/11 00:40:58;;;;;;;;;;;18.10;58.40;;;;;;5040913;28;1902;-71
2024/03/11 00:43:24;;;;;;;;;;;18.10;58.40;;;;;;5043158;28;1571;-73
2024/03/11 00:45:49;;;;;;;;;;;18.10;58.40;;;;;;5075824;28;1545;-73
2024/03/11 00:48:16;;;;;;;;;;;18.10;58.40;;;;;;5042722;28;1567;-73
2024/03/11 00:50:41;;;;;;;;;;;18.10;58.40;;;;;;5037590;28;1287;-73
2024/03/11 00:53:07;;;;;;;;;;;18.10;58.50;;;;;;5040003;28;1304;-73
2024/03/11 00:55:33;;;;;;;;;;;18.10;58.40;;;;;;5058603;28;1167;-74
2024/03/11 00:58:00;;;;;;;;;;;18.10;58.50;;;;;;5039772;28;1147;-72
2024/03/11 01:00:26;;;;;;;;;;;18.10;58.50;;;;;;5038946;28;1967;-72
2024/03/11 01:02:52;;;;;;;;;;;18.10;58.50;;;;;;5043044;28;1303;-72
2024/03/11 01:05:17;;;;;;;;;;;18.10;58.50;;;;;;5040210;28;1746;-72
2024/03/11 01:07:45;;;;;;;;;;;18.10;58.50;;;;;;5038635;28;1173;-72
2024/03/11 01:10:11;;;;;;;;;;;18.10;58.50;;;;;;5041227;28;1240;-71
2024/03/11 01:12:37;;;;;;;;;;;18.10;58.50;;;;;;5040829;28;1458;-72
2024/03/11 01:15:03;;;;;;;;;;;18.10;58.50;;;;;;5039363;28;1375;-72
2024/03/11 01:17:29;;;;;;;;;;;18.10;58.50;;;;;;5041259;28;1360;-72
2024/03/11 01:19:54;;;;;;;;;;;18.10;59.10;;;;;;5041865;28;1987;-72
2024/03/11 01:22:21;;;;;;;;;;;18.10;58.50;;;;;;5039847;28;1311;-72
2024/03/11 01:24:46;;;;;;;;;;;18.10;58.50;;;;;;5043521;28;1555;-72
2024/03/11 01:27:14;;;;;;;;;;;18.10;58.60;;;;;;5038557;28;1265;-72
2024/03/11 01:29:40;;;;;;;;;;;18.10;58.60;;;;;;5058692;28;1291;-72
2024/03/11 01:32:06;;;;;;;;;;;18.10;58.60;;;;;;5039358;28;1296;-71
2024/03/11 01:34:33;;;;;;;;;;;18.10;59.20;;;;;;5041255;28;1436;-71
2024/03/11 01:37:00;;;;;;;;;;;18.10;58.70;;;;;;5040413;28;1377;-71
2024/03/11 01:39:42;;;;;;;;;;;18.00;58.50;;;;;;5042000;28;1563;-71
2024/03/11 01:42:14;;;;;;;;;;;18.10;58.60;;;;;;5041039;28;1363;-71
2024/03/11 01:44:43;;;;;;;;;;;18.10;58.60;;;;;;5041180;28;1311;-71
2024/03/11 01:47:09;;;;;;;;;;;18.10;58.60;;;;;;5037673;28;1361;-71
2024/03/11 01:49:36;;;;;;;;;;;18.10;58.60;;;;;;5038980;28;1621;-72
2024/03/11 01:52:02;;;;;;;;;;;18.00;58.60;;;;;;5035776;28;1347;-71
2024/03/11 01:54:28;;;;;;;;;;;18.10;58.60;;;;;;5041482;28;1288;-71
2024/03/11 01:56:55;;;;;;;;;;;18.00;58.60;;;;;;5043257;28;1268;-71
2024/03/11 01:59:20;;;;;;;;;;;18.00;58.60;;;;;;5038974;28;1753;-73
2024/03/11 02:01:47;;;;;;;;;;;18.10;58.70;;;;;;5046989;28;1965;-73
2024/03/11 02:04:13;;;;;;;;;;;18.00;59.20;;;;;;5040007;28;1450;-73
2024/03/11 02:06:38;;;;;;;;;;;18.00;58.60;;;;;;5041352;28;1539;-74
2024/03/11 02:09:04;;;;;;;;;;;18.00;58.60;;;;;;5038107;28;1299;-72
2024/03/11 02:11:30;;;;;;;;;;;18.00;58.60;;;;;;5037422;28;1381;-73
2024/03/11 02:13:55;;;;;;;;;;;18.00;58.60;;;;;;5038292;28;1304;-73
2024/03/11 02:16:22;;;;;;;;;;;18.00;58.70;;;;;;5042724;28;1658;-73
2024/03/11 02:18:50;;;;;;;;;;;18.00;58.70;;;;;;5039883;28;1533;-73
2024/03/11 02:21:16;;;;;;;;;;;18.00;58.70;;;;;;5038911;28;1910;-73
2024/03/11 02:23:42;;;;;;;;;;;18.00;58.70;;;;;;5039145;28;1522;-72
2024/03/11 02:26:07;;;;;;;;;;;18.00;58.70;;;;;;5040135;28;1250;-73
2024/03/11 02:28:33;;;;;;;;;;;18.00;58.70;;;;;;5040960;28;1189;-73
2024/03/11 02:30:58;;;;;;;;;;;18.00;58.70;;;;;;5036989;28;1449;-72
2024/03/11 02:33:24;;;;;;;;;;;18.00;58.70;;;;;;5041921;28;1399;-73
2024/03/11 02:35:50;;;;;;;;;;;18.00;58.70;;;;;;5042488;28;1282;-72
2024/03/11 02:38:16;;;;;;;;;;;18.00;58.70;;;;;;5040675;28;1499;-72
2024/03/11 02:40:42;;;;;;;;;;;18.00;58.70;;;;;;5039012;28;1922;-71
2024/03/11 02:43:07;;;;;;;;;;;18.00;58.80;;;;;;5040943;28;1422;-72
2024/03/11 02:45:33;;;;;;;;;;;18.00;58.80;;;;;;5042184;28;1469;-72
2024/03/11 02:47:59;;;;;;;;;;;18.00;58.80;;;;;;5040154;28;1329;-72
2024/03/11 02:50:25;;;;;;;;;;;18.00;58.80;;;;;;5039198;28;1308;-72
2024/03/11 02:52:51;;;;;;;;;;;18.00;58.80;;;;;;5038476;28;1394;-72
2024/03/11 02:55:18;;;;;;;;;;;18.00;58.80;;;;;;5038377;28;1647;-73
2024/03/11 02:57:47;;;;;;;;;;;18.00;58.80;;;;;;5040844;28;1247;-71
2024/03/11 03:00:14;;;;;;;;;;;18.00;58.80;;;;;;5039489;28;1890;-72
2024/03/11 03:02:40;;;;;;;;;;;18.00;58.80;;;;;;5039689;28;1288;-71
2024/03/11 03:05:06;;;;;;;;;;;18.00;58.80;;;;;;5035222;28;1345;-71
2024/03/11 03:07:32;;;;;;;;;;;18.00;58.80;;;;;;5040809;28;1592;-72
2024/03/11 03:09:57;;;;;;;;;;;18.00;58.80;;;;;;5038644;28;1695;-72
2024/03/11 03:12:23;;;;;;;;;;;18.00;58.80;;;;;;5039916;28;1714;-71
2024/03/11 03:14:49;;;;;;;;;;;18.00;58.80;;;;;;5038377;28;1170;-71
2024/03/11 03:17:14;;;;;;;;;;;18.00;58.80;;;;;;5037835;28;1208;-71
2024/03/11 03:19:40;;;;;;;;;;;17.90;58.80;;;;;;5038655;28;1906;-71
2024/03/11 03:22:07;;;;;;;;;;;17.90;58.80;;;;;;5039277;28;1569;-72
2024/03/11 03:24:33;;;;;;;;;;;18.00;58.90;;;;;;5040399;28;947;-72
2024/03/11 03:26:58;;;;;;;;;;;18.00;58.90;;;;;;5045733;28;1587;-72
2024/03/11 03:29:24;;;;;;;;;;;18.00;58.90;;;;;;5039977;28;1355;-72
2024/03/11 03:31:51;;;;;;;;;;;18.00;58.90;;;;;;5038741;28;907;-72
2024/03/11 03:34:16;;;;;;;;;;;18.00;58.90;;;;;;5037469;28;1359;-71
2024/03/11 03:36:42;;;;;;;;;;;18.00;58.90;;;;;;5036047;28;1331;-72
2024/03/11 03:39:10;;;;;;;;;;;18.00;58.90;;;;;;5046999;28;1323;-72
2024/03/11 03:41:36;;;;;;;;;;;17.90;58.90;;;;;;5040118;28;1951;-72
2024/03/11 03:44:01;;;;;;;;;;;17.90;58.90;;;;;;5040918;28;1319;-71
2024/03/11 03:46:27;;;;;;;;;;;17.90;58.90;;;;;;5040290;28;1499;-72
2024/03/11 03:48:52;;;;;;;;;;;17.90;58.90;;;;;;5039718;28;1608;-72
2024/03/11 03:51:18;;;;;;;;;;;17.90;58.90;;;;;;5036763;28;1252;-71
2024/03/11 03:53:44;;;;;;;;;;;17.90;58.90;;;;;;5038966;28;1295;-71
2024/03/11 03:56:10;;;;;;;;;;;17.90;58.90;;;;;;5040948;28;1273;-71
2024/03/11 03:58:36;;;;;;;;;;;17.90;58.90;;;;;;5038426;28;1366;-71
2024/03/11 04:01:02;;;;;;;;;;;17.90;58.90;;;;;;5040420;28;1969;-72
2024/03/11 04:03:28;;;;;;;;;;;17.90;59.00;;;;;;5043238;28;1378;-70
2024/03/11 04:05:54;;;;;;;;;;;17.90;59.00;;;;;;5040892;28;1305;-71
2024/03/11 04:08:20;;;;;;;;;;;17.90;59.00;;;;;;5042850;28;1508;-72
2024/03/11 04:10:46;;;;;;;;;;;17.90;59.00;;;;;;5042793;28;1309;-71
2024/03/11 04:13:12;;;;;;;;;;;17.90;59.00;;;;;;5030973;28;1414;-71
2024/03/11 04:15:40;;;;;;;;;;;17.90;59.00;;;;;;5040564;28;963;-71
2024/03/11 04:18:05;;;;;;;;;;;17.90;59.00;;;;;;5043174;28;833;-71
2024/03/11 04:20:31;;;;;;;;;;;17.90;59.00;;;;;;5046209;28;1906;-73
2024/03/11 04:22:58;;;;;;;;;;;17.90;59.00;;;;;;5039944;28;1476;-72
2024/03/11 04:25:26;;;;;;;;;;;17.90;59.00;;;;;;5043113;28;1883;-71
2024/03/11 04:27:52;;;;;;;;;;;17.90;59.00;;;;;;5042108;28;1481;-71
2024/03/11 04:30:19;;;;;;;;;;;17.90;59.60;;;;;;5042094;28;1767;-71
2024/03/11 04:32:53;;;;;;;;;;;17.90;59.10;;;;;;5040532;28;1291;-72
2024/03/11 04:35:24;;;;;;;;;;;17.90;59.00;;;;;;5038518;28;1701;-71
2024/03/11 04:38:17;;;;;;;;;;;17.90;59.00;;;;;;5041589;28;1177;-71
2024/03/11 04:40:43;;;;;;;;;;;17.90;59.00;;;;;;5044038;28;1906;-71
2024/03/11 04:43:09;;;;;;;;;;;17.90;59.10;;;;;;5040411;28;1288;-72
2024/03/11 04:45:35;;;;;;;;;;;17.90;59.10;;;;;;5041813;28;1416;-71
2024/03/11 04:48:00;;;;;;;;;;;17.90;59.10;;;;;;5041782;28;1534;-73
2024/03/11 04:50:27;;;;;;;;;;;17.90;59.10;;;;;;5042433;28;1053;-73
2024/03/11 04:52:55;;;;;;;;;;;17.90;59.10;;;;;;5039479;28;1279;-74
2024/03/11 04:55:20;;;;;;;;;;;17.90;59.10;;;;;;5047947;28;1655;-73
2024/03/11 04:57:46;;;;;;;;;;;17.90;59.10;;;;;;5042872;28;1559;-74
2024/03/11 05:00:12;;;;;;;;;;;17.90;59.10;;;;;;5041793;28;1905;-73
2024/03/11 05:02:39;;;;;;;;;;;17.90;59.10;;;;;;5040623;28;1288;-73
2024/03/11 05:05:09;;;;;;;;;;;17.90;59.10;;;;;;5039728;28;1113;-72
2024/03/11 05:07:37;;;;;;;;;;;17.90;59.10;;;;;;5021149;28;1453;-73
2024/03/11 05:10:03;;;;;;;;;;;17.90;59.10;;;;;;5038806;28;1439;-73
2024/03/11 05:12:29;;;;;;;;;;;17.90;59.10;;;;;;5039270;28;1558;-73
2024/03/11 05:14:55;;;;;;;;;;;17.90;59.00;;;;;;5026156;28;1319;-73
2024/03/11 05:17:20;;;;;;;;;;;17.90;59.00;;;;;;5040015;28;1391;-72
2024/03/11 05:19:49;;;;;;;;;;;18.00;59.00;;;;;;5041708;28;1969;-74
2024/03/11 05:22:15;;;;;;;;;;;18.00;58.90;;;;;;5041829;28;1296;-73
2024/03/11 05:24:40;;;;;;;;;;;18.00;58.80;;;;;;5038355;28;1711;-73
2024/03/11 05:27:06;;;;;;;;;;;18.00;58.70;;;;;;5038246;28;1321;-73
2024/03/11 05:29:32;;;;;;;;;;;18.00;58.70;;;;;;5039919;28;1513;-73
2024/03/11 05:31:58;;;;;;;;;;;18.10;58.70;;;;;;5037889;28;1329;-73
2024/03/11 05:34:23;;;;;;;;;;;18.10;58.50;;;;;;5073679;28;1630;-73
2024/03/11 05:36:49;;;;;;;;;;;18.10;58.50;;;;;;5040936;28;1268;-72
2024/03/11 05:39:15;;;;;;;;;;;18.10;58.40;;;;;;5040653;28;1568;-73
2024/03/11 05:41:41;;;;;;;;;;;18.20;58.40;;;;;;5039245;28;1901;-73
2024/03/11 05:44:07;;;;;;;;;;;18.20;58.30;;;;;;5035758;28;1486;-73
2024/03/11 05:46:32;;;;;;;;;;;18.20;58.30;;;;;;5039789;28;1287;-73
2024/03/11 05:49:00;;;;;;;;;;;18.30;58.20;;;;;;5038479;28;1523;-73
2024/03/11 05:51:28;;;;;;;;;;;18.30;58.20;;;;;;5042612;28;1679;-71
2024/03/11 05:53:56;;;;;;;;;;;18.30;58.20;;;;;;5038224;28;1568;-72
2024/03/11 05:56:26;;;;;;;;;;;18.30;58.10;;;;;;5040248;28;1441;-72
2024/03/11 05:58:51;;;;;;;;;;;18.30;58.00;;;;;;5041220;28;1323;-72
2024/03/11 06:01:17;;;;;;;;;;;18.30;58.00;;;;;;5026607;28;1898;-73
2024/03/11 06:03:42;;;;;;;;;;;18.30;58.00;;;;;;5036213;28;1369;-71
2024/03/11 06:06:08;;;;;;;;;;;18.30;57.90;;;;;;5039931;28;1267;-72
2024/03/11 06:08:34;;;;;;;;;;;18.30;57.90;;;;;;5038512;28;1554;-72
2024/03/11 06:11:00;;;;;;;;;;;18.30;57.90;;;;;;5036734;28;1538;-73
2024/03/11 06:13:25;;;;;;;;;;;18.40;57.90;;;;;;5042481;28;1394;-73
2024/03/11 06:15:51;;;;;;;;;;;18.40;57.90;;;;;;5036210;28;1177;-72
2024/03/11 06:18:16;;;;;;;;;;;18.40;57.90;;;;;;5039058;28;1155;-71
2024/03/11 06:20:42;;;;;;;;;;;18.40;57.80;;;;;;5039729;28;1969;-73
2024/03/11 06:23:07;;;;;;;;;;;18.40;57.80;;;;;;5040454;28;1362;-72
2024/03/11 06:25:33;;;;;;;;;;;18.40;57.80;;;;;;5042131;28;1530;-73
2024/03/11 06:27:58;;;;;;;;;;;18.40;57.80;;;;;;5036624;28;1501;-73
2024/03/11 06:30:24;;;;;;;;;;;18.40;57.80;;;;;;5038435;28;1274;-73
2024/03/11 06:32:50;;;;;;;;;;;18.40;57.80;;;;;;5046868;28;1751;-73
2024/03/11 06:35:15;;;;;;;;;;;18.40;57.80;;;;;;5037661;28;1569;-73
2024/03/11 06:37:45;;;;;;;;;;;18.40;57.80;;;;;;5039124;28;1180;-72
2024/03/11 06:40:12;;;;;;;;;;;18.40;57.80;;;;;;5037119;28;1964;-72
2024/03/11 06:42:38;;;;;;;;;;;18.40;57.80;;;;;;5036509;28;1467;-73
2024/03/11 06:45:05;;;;;;;;;;;18.40;57.80;;;;;;5039520;28;1337;-72
2024/03/11 06:47:30;;;;;;;;;;;18.40;57.80;;;;;;5057760;28;1602;-73
2024/03/11 06:49:56;;;;;;;;;;;18.40;57.80;;;;;;5038106;28;1147;-73
2024/03/11 06:52:21;;;;;;;;;;;18.40;57.80;;;;;;5037161;28;1362;-72
2024/03/11 06:54:48;;;;;;;;;;;18.40;57.90;;;;;;5040341;28;1536;-71
2024/03/11 06:57:14;;;;;;;;;;;18.40;57.90;;;;;;5038707;28;1530;-73
2024/03/11 06:59:40;;;;;;;;;;;18.40;57.90;;;;;;5022666;28;1428;-73
2024/03/11 07:02:05;;;;;;;;;;;18.40;57.90;;;;;;5037145;28;1931;-73
2024/03/11 07:04:31;;;;;;;;;;;18.40;57.90;;;;;;5037862;28;1760;-73
2024/03/11 07:06:59;;;;;;;;;;;18.40;57.90;;;;;;5039374;28;1273;-73
2024/03/11 07:09:25;;;;;;;;;;;18.40;57.90;;;;;;5038805;28;1398;-73
2024/03/11 07:11:51;;;;;;;;;;;18.40;57.90;;;;;;5040576;28;1572;-71
2024/03/11 07:14:16;;;;;;;;;;;18.50;57.90;;;;;;5037402;28;1402;-71
2024/03/11 07:16:43;;;;;;;;;;;18.50;57.90;;;;;;5041839;28;1901;-72
2024/03/11 07:19:12;;;;;;;;;;;18.70;57.80;;;;;;5032354;28;1792;-71
2024/03/11 07:21:38;;;;;;;;;;;18.70;57.70;;;;;;5038575;28;1938;-70
2024/03/11 07:24:05;;;;;;;;;;;18.80;57.50;;;;;;5037111;28;1617;-69
2024/03/11 07:26:30;;;;;;;;;;;18.90;57.40;;;;;;5040436;28;1525;-70
2024/03/11 07:28:56;;;;;;;;;;;19.00;57.30;;;;;;5039772;28;1531;-70
2024/03/11 07:31:22;;;;;;;;;;;19.10;57.10;;;;;;5037774;28;1503;-70
2024/03/11 07:33:48;;;;;;;;;;;19.20;57.00;;;;;;5038524;28;1546;-69
2024/03/11 07:36:15;;;;;;;;;;;19.20;57.30;;;;;;5041824;28;1484;-69
2024/03/11 07:38:41;;;;;;;;;;;19.30;56.60;;;;;;5042573;28;1374;-70
2024/03/11 07:41:08;;;;;;;;;;;19.40;56.50;;;;;;5042712;28;1898;-71
2024/03/11 07:43:34;;;;;;;;;;;19.40;56.40;;;;;;5041333;28;1389;-70
2024/03/11 07:46:02;;;;;;;;;;;19.50;56.30;;;;;;5040443;28;1585;-70
2024/03/11 07:48:27;;;;;;;;;;;19.60;56.20;;;;;;5039378;28;1373;-70
2024/03/11 07:50:53;;;;;;;;;;;19.60;56.00;;;;;;5042095;28;1392;-69
2024/03/11 07:53:19;;;;;;;;;;;19.60;56.00;;;;;;5044947;28;1648;-70
2024/03/11 07:55:44;;;;;;;;;;;19.70;55.90;;;;;;5040027;28;1575;-70
2024/03/11 07:58:11;;;;;;;;;;;19.70;55.80;;;;;;5043907;28;1255;-70
2024/03/11 08:00:36;;;;;;;;;;;19.70;55.80;;;;;;5039640;28;1910;-70
2024/03/11 08:03:03;;;;;;;;;;;19.80;55.70;;;;;;5038815;28;1355;-71
2024/03/11 08:05:28;;;;;;;;;;;19.80;55.70;;;;;;5045789;28;1394;-72
2024/03/11 08:07:54;;;;;;;;;;;19.80;55.80;;;;;;5043654;28;1360;-71
2024/03/11 08:10:19;;;;;;;;;;;19.80;55.80;;;;;;5043692;28;1363;-72
2024/03/11 08:12:45;;;;;;;;;;;19.90;55.90;;;;;;5058802;28;1762;-72
2024/03/11 08:15:12;;;;;;;;;;;19.90;56.00;;;;;;5043710;28;1323;-72
2024/03/11 08:17:42;;;;;;;;;;;19.90;56.10;;;;;;5040819;28;1177;-72
2024/03/11 08:20:12;;;;;;;;;;;20.00;56.30;;;;;;5040793;28;1977;-72
2024/03/11 08:22:42;;;;;;;;;;;20.00;56.20;;;;;;5043772;28;1503;-72
2024/03/11 08:25:08;;;;;;;;;;;20.00;56.30;;;;;;5041015;28;2323;-72
2024/03/11 08:27:33;;;;;;;;;;;20.00;56.30;;;;;;5057832;28;1278;-71
2024/03/11 08:29:59;;;;;;;;;;;20.10;56.40;;;;;;5040319;28;1252;-72
2024/03/11 08:32:25;;;;;;;;;;;20.10;56.40;;;;;;5044739;28;1336;-72
2024/03/11 08:34:54;;;;;;;;;;;20.10;56.50;;;;;;5039398;28;1542;-72
2024/03/11 08:37:20;;;;;;;;;;;20.10;56.60;;;;;;5038754;28;1420;-71
2024/03/11 08:39:46;;;;;;;;;;;20.20;56.70;;;;;;5073039;28;1930;-71
2024/03/11 08:42:13;;;;;;;;;;;20.20;56.80;;;;;;5040768;28;1651;-71
2024/03/11 08:44:38;;;;;;;;;;;20.20;56.90;;;;;;5041647;28;1890;-70
2024/03/11 08:47:06;;;;;;;;;;;20.20;57.00;;;;;;5040713;28;1523;-70
2024/03/11 08:49:33;;;;;;;;;;;20.20;57.10;;;;;;5050306;28;1503;-70
2024/03/11 08:52:00;;;;;;;;;;;20.20;57.20;;;;;;5043544;28;1246;-70
2024/03/11 08:54:28;;;;;;;;;;;20.30;57.50;;;;;;5040066;28;1447;-70
2024/03/11 08:56:56;;;;;;;;;;;20.30;57.30;;;;;;5040666;28;1269;-70
2024/03/11 08:59:22;;;;;;;;;;;20.30;57.30;;;;;;5039872;28;1710;-71
2024/03/11 09:01:49;;;;;;;;;;;20.40;57.40;;;;;;5038236;28;1906;-71
2024/03/11 09:04:15;;;;;;;;;;;20.40;57.30;;;;;;5041159;28;1391;-71
2024/03/11 09:06:43;;;;;;;;;;;20.40;57.30;;;;;;5039292;28;1543;-71
2024/03/11 09:09:09;;;;;;;;;;;20.50;57.30;;;;;;5040436;28;2009;-71
2024/03/11 09:11:34;;;;;;;;;;;20.50;57.30;;;;;;5059037;28;1577;-70
2024/03/11 09:14:00;;;;;;;;;;;20.50;57.40;;;;;;5039394;28;1472;-71
2024/03/11 09:16:27;;;;;;;;;;;20.50;57.50;;;;;;5028435;28;1395;-71
2024/03/11 09:18:53;;;;;;;;;;;20.50;57.40;;;;;;5039479;28;1943;-71
2024/03/11 09:21:21;;;;;;;;;;;20.50;57.50;;;;;;5041325;28;1906;-71
2024/03/11 09:23:47;;;;;;;;;;;20.60;57.50;;;;;;5027032;28;1292;-71
2024/03/11 09:26:12;;;;;;;;;;;20.60;57.60;;;;;;5037449;28;971;-71
2024/03/11 09:28:38;;;;;;;;;;;20.50;57.50;;;;;;5038905;28;1573;-71
2024/03/11 09:31:04;;;;;;;;;;;20.60;57.50;;;;;;5040119;28;1409;-71
2024/03/11 09:33:29;;;;;;;;;;;20.60;57.50;;;;;;5040177;28;1627;-71
2024/03/11 09:35:55;;;;;;;;;;;20.60;57.50;;;;;;5041129;28;1634;-72
2024/03/11 09:38:21;;;;;;;;;;;20.60;57.60;;;;;;5074089;28;1443;-72
2024/03/11 09:40:50;;;;;;;;;;;20.50;57.60;;;;;;5041899;28;1967;-72
2024/03/11 09:43:17;;;;;;;;;;;20.60;57.70;;;;;;5048039;28;1629;-71
2024/03/11 09:45:43;;;;;;;;;;;20.50;57.70;;;;;;5038815;28;1616;-71
2024/03/11 09:48:09;;;;;;;;;;;20.50;57.70;;;;;;5041314;28;1645;-71
2024/03/11 09:50:37;;;;;;;;;;;20.50;57.90;;;;;;5039599;28;1739;-72
2024/03/11 09:53:18;;;;;;;;;;;20.50;58.00;;;;;;5041278;28;1834;-72
2024/03/11 09:55:44;;;;;;;;;;;20.50;58.20;;;;;;5039451;28;1988;-72
2024/03/11 09:58:10;;;;;;;;;;;20.50;58.50;;;;;;5053154;28;1912;-71
2024/03/11 10:00:48;;;;;;;;;;;20.50;58.70;;;;;;5038396;28;2011;-72
2024/03/11 10:03:13;;;;;;;;;;;20.50;58.90;;;;;;5039029;28;1910;-72
2024/03/11 10:05:39;;;;;;;;;;;20.40;59.10;;;;;;5038789;28;1310;-72
2024/03/11 10:08:05;;;;;;;;;;;20.40;59.30;;;;;;5037913;28;2075;-72
2024/03/11 10:10:32;;;;;;;;;;;20.40;59.50;;;;;;5040283;28;2028;-72
2024/03/11 10:13:04;;;;;;;;;;;20.40;59.70;;;;;;5039950;28;1343;-72
2024/03/11 10:15:32;;;;;;;;;;;20.30;60.00;;;;;;5036467;28;1796;-72
2024/03/11 10:18:02;;;;;;;;;;;20.30;60.10;;;;;;5038923;28;1923;-71
2024/03/11 10:20:28;;;;;;;;;;;20.30;61.10;;;;;;5068747;28;2280;-71
2024/03/11 10:22:59;;;;;;;;;;;20.30;62.10;;;;;;5038285;28;2133;-71
2024/03/11 10:25:27;;;;;;;;;;;20.30;62.20;;;;;;5039361;28;1424;-71
2024/03/11 10:27:52;;;;;;;;;;;20.20;62.10;;;;;;5036277;28;2099;-71
2024/03/11 10:30:19;;;;;;;;;;;20.20;63.20;;;;;;5039509;28;1989;-71
2024/03/11 10:32:45;;;;;;;;;;;20.20;62.60;;;;;;5036433;28;2197;-71
2024/03/11 10:35:11;;;;;;;;;;;20.20;62.50;;;;;;5036368;28;1515;-71
2024/03/11 10:37:43;;;;;;;;;;;20.20;62.50;;;;;;5041275;28;1704;-71
2024/03/11 10:40:18;;;;;;;;;;;20.20;62.60;;;;;;5041127;28;1961;-71
2024/03/11 10:42:49;;;;;;;;;;;20.20;62.60;;;;;;5038977;28;1269;-70
2024/03/11 10:45:28;;;;;;;;;;;20.10;62.50;;;;;;5036592;28;1605;-71
2024/03/11 10:47:54;;;;;;;;;;;20.10;62.40;;;;;;5040088;28;1724;-71
2024/03/11 10:50:20;;;;;;;;;;;20.10;62.40;;;;;;5037731;28;1332;-71
2024/03/11 10:52:47;;;;;;;;;;;20.10;62.50;;;;;;5036478;28;1356;-71
2024/03/11 10:55:12;;;;;;;;;;;20.20;62.40;;;;;;5038393;28;1530;-71
2024/03/11 10:57:45;;;;;;;;;;;20.20;62.20;;;;;;5038432;28;1768;-71
2024/03/11 11:02:43;;;;;;;;;;;20.20;61.80;;;;;;5040306;28;1463;-70
2024/03/11 11:05:09;;;;;;;;;;;20.20;61.70;;;;;;5038065;28;1342;-72
2024/03/11 11:07:34;;;;;;;;;;;20.30;61.60;;;;;;5039496;28;1038;-71
2024/03/11 11:10:03;;;;;;;;;;;20.30;61.40;;;;;;5037594;28;1277;-71
2024/03/11 11:12:29;;;;;;;;;;;20.30;61.40;;;;;;5036711;28;1635;-71
2024/03/11 11:15:07;;;;;;;;;;;20.30;61.30;;;;;;5039685;28;1317;-72
2024/03/11 11:17:37;;;;;;;;;;;20.30;61.30;;;;;;5037904;28;1233;-71
2024/03/11 11:20:17;;;;;;;;;;;20.30;61.20;;;;;;5038999;28;1918;-71
2024/03/11 11:22:42;;;;;;;;;;;20.30;61.20;;;;;;5037273;28;1473;-71
2024/03/11 11:25:29;;;;;;;;;;;20.20;61.10;;;;;;5030714;28;1506;-73
2024/03/11 11:27:55;;;;;;;;;;;20.20;61.10;;;;;;5040529;28;1525;-74
2024/03/11 11:30:22;;;;;;;;;;;20.20;61.50;;;;;;5040322;28;1466;-70
2024/03/11 11:32:49;;;;;;;;;;;20.10;61.60;;;;;;5037913;28;1395;-73
2024/03/11 11:35:30;;;;;;;;;;;20.10;61.80;;;;;;5036909;28;1468;-73
2024/03/11 11:37:57;;;;;;;;;;;20.00;61.90;;;;;;5038020;28;1374;-73
2024/03/11 11:40:29;;;;;;;;;;;20.00;61.90;;;;;;5040151;28;1906;-72
2024/03/11 11:42:55;;;;;;;;;;;20.00;62.00;;;;;;5035709;28;1308;-73
2024/03/11 11:45:54;;;;;;;;;;;19.90;62.10;;;;;;5039635;28;1606;-73
2024/03/11 11:48:26;;;;;;;;;;;19.90;62.10;;;;;;5036494;28;1585;-73
2024/03/11 11:50:58;;;;;;;;;;;19.90;62.30;;;;;;5040037;28;1568;-72
2024/03/11 11:53:25;;;;;;;;;;;19.80;62.40;;;;;;5038130;28;1512;-73
2024/03/11 11:55:50;;;;;;;;;;;19.80;62.60;;;;;;5035517;28;1637;-74
2024/03/11 11:58:16;;;;;;;;;;;19.80;62.70;;;;;;5024919;28;1337;-74
2024/03/11 12:00:42;;;;;;;;;;;19.80;62.90;;;;;;5040284;28;1941;-75
2024/03/11 12:03:27;;;;;;;;;;;19.80;63.00;;;;;;5036905;28;1272;-74
2024/03/11 12:06:17;;;;;;;;;;;19.80;63.10;;;;;;5035708;28;1472;-73
2024/03/11 12:08:47;;;;;;;;;;;19.80;63.20;;;;;;5035973;28;1733;-71
2024/03/11 12:11:15;;;;;;;;;;;19.80;63.20;;;;;;5035045;28;1614;-73
2024/03/11 12:13:41;;;;;;;;;;;19.70;63.10;;;;;;5035087;28;1355;-72
2024/03/11 12:16:10;;;;;;;;;;;19.70;63.10;;;;;;5034906;28;1465;-72
2024/03/11 12:18:39;;;;;;;;;;;19.70;63.20;;;;;;5039253;28;1415;-71
2024/03/11 12:21:11;;;;;;;;;;;19.70;63.20;;;;;;5052222;28;1969;-70
2024/03/11 12:23:37;;;;;;;;;;;19.70;63.20;;;;;;5047771;28;1475;-70
2024/03/11 12:26:03;;;;;;;;;;;19.60;63.20;;;;;;5041473;28;1038;-69
2024/03/11 12:28:29;;;;;;;;;;;19.60;63.20;;;;;;5039637;28;1417;-72
2024/03/11 12:30:55;;;;;;;;;;;19.60;63.20;;;;;;5041811;28;1261;-72
2024/03/11 12:33:22;;;;;;;;;;;19.60;63.30;;;;;;5042488;28;1276;-72
2024/03/11 12:35:50;;;;;;;;;;;19.60;63.20;;;;;;5041905;28;1117;-72
2024/03/11 12:38:16;;;;;;;;;;;19.60;63.20;;;;;;5025326;28;1519;-72
2024/03/11 12:40:46;;;;;;;;;;;19.60;63.30;;;;;;5043253;28;1894;-71
2024/03/11 12:43:12;;;;;;;;;;;19.60;63.40;;;;;;5041314;28;1485;-71
2024/03/11 12:45:45;;;;;;;;;;;19.60;63.40;;;;;;5040458;28;1258;-71
2024/03/11 12:48:13;;;;;;;;;;;19.60;63.40;;;;;;5042293;28;1314;-71
2024/03/11 12:50:42;;;;;;;;;;;19.60;63.40;;;;;;5072564;28;1676;-73
2024/03/11 12:53:14;;;;;;;;;;;19.60;63.40;;;;;;5048469;28;1233;-72
2024/03/11 12:55:40;;;;;;;;;;;19.60;63.30;;;;;;5040198;28;1196;-71
2024/03/11 12:58:12;;;;;;;;;;;19.60;63.50;;;;;;5040775;28;1408;-70
2024/03/11 13:00:41;;;;;;;;;;;19.60;63.40;;;;;;5039895;28;1902;-70
2024/03/11 13:03:11;;;;;;;;;;;19.60;63.40;;;;;;5038892;28;1639;-71
2024/03/11 13:06:00;;;;;;;;;;;19.60;63.00;;;;;;5039275;28;1710;-71
2024/03/11 13:08:26;;;;;;;;;;;19.50;58.60;;;;;;5040079;28;1518;-70
2024/03/11 13:11:03;;;;;;;;;;;19.40;54.70;;;;;;5041132;28;1572;-71
2024/03/11 13:13:29;;;;;;;;;;;19.40;53.30;;;;;;5042440;28;1452;-70
2024/03/11 13:15:55;;;;;;;;;;;19.30;53.50;;;;;;5048065;28;1388;-70
2024/03/11 13:18:21;;;;;;;;;;;19.30;53.40;;;;;;5043940;28;1373;-69
2024/03/11 13:20:50;;;;;;;;;;;19.20;52.80;;;;;;5025932;28;1961;-69
2024/03/11 13:23:18;;;;;;;;;;;19.10;51.40;;;;;;5039738;28;1641;-69
2024/03/11 13:25:44;;;;;;;;;;;19.10;52.10;;;;;;5041962;28;1333;-70
2024/03/11 13:28:12;;;;;;;;;;;19.00;52.10;;;;;;5038423;28;1302;-69
2024/03/11 13:30:40;;;;;;;;;;;19.00;52.40;;;;;;5040290;28;1589;-69
2024/03/11 13:33:06;;;;;;;;;;;19.00;52.30;;;;;;5038594;28;1470;-69
2024/03/11 13:35:31;;;;;;;;;;;18.90;52.00;;;;;;5042330;28;1380;-69
2024/03/11 13:37:57;;;;;;;;;;;18.90;52.40;;;;;;5048351;28;1401;-69
2024/03/11 13:40:22;;;;;;;;;;;18.90;52.40;;;;;;5041011;28;1898;-69
2024/03/11 13:42:48;;;;;;;;;;;18.80;52.40;;;;;;5043206;28;1276;-69
2024/03/11 13:45:14;;;;;;;;;;;18.80;52.10;;;;;;5041386;28;1308;-71
2024/03/11 13:47:39;;;;;;;;;;;18.80;51.50;;;;;;5047935;28;1403;-72
2024/03/11 13:50:14;;;;;;;;;;;18.80;52.10;;;;;;5074511;28;1160;-72
2024/03/11 13:52:43;;;;;;;;;;;18.80;52.70;;;;;;5037188;28;1392;-71
2024/03/11 13:55:09;;;;;;;;;;;18.70;52.70;;;;;;5037481;28;1421;-72
2024/03/11 13:57:34;;;;;;;;;;;18.70;52.40;;;;;;5038957;28;1533;-71
2024/03/11 14:00:00;;;;;;;;;;;18.80;51.80;;;;;;5038827;28;1894;-72
2024/03/11 14:02:26;;;;;;;;;;;18.70;51.10;;;;;;5037992;28;1573;-71
2024/03/11 14:04:52;;;;;;;;;;;18.70;51.10;;;;;;5039392;28;2069;-72
2024/03/11 14:07:20;;;;;;;;;;;18.70;51.70;;;;;;5037290;28;1368;-71
2024/03/11 14:09:45;;;;;;;;;;;18.70;52.00;;;;;;5036918;28;1833;-72
2024/03/11 14:12:11;;;;;;;;;;;18.70;52.10;;;;;;5039493;28;1354;-71
2024/03/11 14:14:40;;;;;;;;;;;18.70;52.30;;;;;;5040009;28;1631;-71
2024/03/11 14:17:07;;;;;;;;;;;18.80;52.60;;;;;;5037630;28;1537;-73
2024/03/11 14:19:33;;;;;;;;;;;18.80;53.30;;;;;;5038985;28;1314;-72
2024/03/11 14:21:58;;;;;;;;;;;18.80;53.50;;;;;;5039240;28;1902;-72
2024/03/11 14:24:24;;;;;;;;;;;18.80;53.80;;;;;;5023763;28;1476;-72
2024/03/11 14:26:49;;;;;;;;;;;18.80;54.00;;;;;;5039544;28;1199;-72
2024/03/11 14:29:15;;;;;;;;;;;18.80;54.20;;;;;;5038707;28;1390;-72
2024/03/11 14:31:44;;;;;;;;;;;18.80;54.30;;;;;;5024923;28;1468;-72
2024/03/11 14:34:10;;;;;;;;;;;18.80;54.40;;;;;;5070388;28;2305;-72